Wetterdaten: Woche 01.08.05 - 07.08.05 (KW31)
Datum Zeit Temperatur Luftfeuchte Luftdruck Niederschlag Windrichtung Wind
01.08.2005 00:00 14,4 C 88 % 1018 hPa 0,0 l/m NW 1,8 km/h (1 Bft)
01.08.2005 01:00 13,6 C 87 % 1018 hPa 0,0 l/m W-NW 1,8 km/h (1 Bft)
01.08.2005 02:00 13,0 C 90 % 1018 hPa 0,0 l/m N 0,0 km/h (0 Bft)
01.08.2005 03:00 12,4 C 92 % 1018 hPa 0,0 l/m NW 1,6 km/h (1 Bft)
01.08.2005 04:00 12,2 C 93 % 1018 hPa 0,0 l/m NW 2,0 km/h (1 Bft)
01.08.2005 05:00 11,7 C 93 % 1018 hPa 0,0 l/m N 0,0 km/h (0 Bft)
01.08.2005 06:00 11,4 C 95 % 1018 hPa 0,0 l/m NW 3,3 km/h (1 Bft)
01.08.2005 07:00 12,6 C 93 % 1018 hPa 0,0 l/m N 0,0 km/h (0 Bft)
01.08.2005 08:00 14,6 C 82 % 1018 hPa 0,0 l/m N-NO 7,4 km/h (2 Bft)
01.08.2005 09:00 16,3 C 72 % 1018 hPa 0,0 l/m N 11,8 km/h (2 Bft)
01.08.2005 10:00 19,5 C 58 % 1018 hPa 0,0 l/m N-NO 13,4 km/h (3 Bft)
01.08.2005 11:00 21,7 C 51 % 1018 hPa 0,0 l/m N-NO 11,8 km/h (2 Bft)
01.08.2005 12:00 23,6 C 45 % 1017 hPa 0,0 l/m N-NO 14,5 km/h (3 Bft)
01.08.2005 13:00 23,7 C 45 % 1017 hPa 0,0 l/m NO 12,2 km/h (2 Bft)
01.08.2005 14:00 23,9 C 44 % 1017 hPa 0,0 l/m NO 11,6 km/h (2 Bft)
01.08.2005 15:00 24,6 C 42 % 1017 hPa 0,0 l/m O 6,4 km/h (2 Bft)
01.08.2005 16:00 23,6 C 43 % 1017 hPa 0,0 l/m NO 11,3 km/h (2 Bft)
01.08.2005 17:00 23,1 C 45 % 1017 hPa 0,0 l/m NO 11,2 km/h (2 Bft)
01.08.2005 18:00 22,6 C 46 % 1017 hPa 0,0 l/m NO 8,7 km/h (2 Bft)
01.08.2005 19:00 21,9 C 49 % 1017 hPa 0,0 l/m N-NO 4,7 km/h (1 Bft)
01.08.2005 20:00 21,0 C 54 % 1017 hPa 0,0 l/m N 3,2 km/h (1 Bft)
01.08.2005 21:00 19,8 C 59 % 1017 hPa 0,0 l/m N-NW 7,7 km/h (2 Bft)
01.08.2005 22:00 18,8 C 65 % 1018 hPa 0,0 l/m NW 7,7 km/h (2 Bft)
01.08.2005 23:00 17,2 C 79 % 1018 hPa 1,0 l/m N-NW 8,0 km/h (2 Bft)
02.08.2005 00:00 16,6 C 85 % 1018 hPa 0,0 l/m N-NO 2,1 km/h (1 Bft)
02.08.2005 01:00 16,5 C 85 % 1017 hPa 0,0 l/m N 5,6 km/h (1 Bft)
02.08.2005 02:00 16,2 C 86 % 1017 hPa 0,0 l/m NW 3,4 km/h (1 Bft)
02.08.2005 03:00 16,1 C 88 % 1016 hPa 0,0 l/m NW 2,2 km/h (1 Bft)
02.08.2005 04:00 15,8 C 91 % 1016 hPa 0,0 l/m NW 4,9 km/h (1 Bft)
02.08.2005 05:00 15,5 C 94 % 1017 hPa 9,0 l/m N 4,3 km/h (1 Bft)
02.08.2005 06:00 15,0 C 98 % 1017 hPa 0,0 l/m N 11,6 km/h (2 Bft)
02.08.2005 07:00 14,8 C 99 % 1017 hPa 0,0 l/m N 10,4 km/h (2 Bft)
02.08.2005 08:00 14,4 C 98 % 1017 hPa 4,0 l/m N-NW 10,9 km/h (2 Bft)
02.08.2005 09:00 14,2 C 99 % 1017 hPa 0,0 l/m N 5,6 km/h (1 Bft)
02.08.2005 10:00 14,4 C 99 % 1017 hPa 1,0 l/m N 7,1 km/h (2 Bft)
02.08.2005 11:00 15,2 C 99 % 1017 hPa 0,0 l/m N-NO 6,8 km/h (2 Bft)
02.08.2005 12:00 16,0 C 96 % 1017 hPa 0,0 l/m N-NO 10,5 km/h (2 Bft)
02.08.2005 13:00 17,0 C 91 % 1017 hPa 0,0 l/m N-NO 11,0 km/h (2 Bft)
02.08.2005 14:00 17,8 C 85 % 1016 hPa 0,0 l/m N-NO 10,6 km/h (2 Bft)
02.08.2005 15:00 18,0 C 82 % 1016 hPa 0,0 l/m N 11,3 km/h (2 Bft)
02.08.2005 16:00 18,0 C 83 % 1016 hPa 0,0 l/m N 9,0 km/h (2 Bft)
02.08.2005 17:00 17,6 C 89 % 1016 hPa 0,0 l/m N 7,4 km/h (2 Bft)
02.08.2005 18:00 17,0 C 91 % 1017 hPa 2,0 l/m N-NW 5,3 km/h (1 Bft)
02.08.2005 19:00 16,3 C 96 % 1017 hPa 1,0 l/m N-NW 10,9 km/h (2 Bft)
02.08.2005 20:00 15,5 C 97 % 1017 hPa 0,0 l/m N-NW 9,7 km/h (2 Bft)
02.08.2005 21:00 15,0 C 98 % 1017 hPa 0,0 l/m NW 9,3 km/h (2 Bft)
02.08.2005 22:00 14,7 C 99 % 1018 hPa 1,0 l/m NW 10,8 km/h (2 Bft)
02.08.2005 23:00 14,2 C 98 % 1018 hPa 0,0 l/m NW 11,4 km/h (2 Bft)
03.08.2005 00:00 14,1 C 98 % 1018 hPa 0,0 l/m NW 4,6 km/h (1 Bft)
03.08.2005 01:00 14,1 C 99 % 1018 hPa 0,0 l/m NW 5,0 km/h (1 Bft)
03.08.2005 02:00 14,0 C 99 % 1018 hPa 0,0 l/m W 7,0 km/h (2 Bft)
03.08.2005 03:00 13,9 C 99 % 1018 hPa 0,0 l/m NW 9,7 km/h (2 Bft)
03.08.2005 04:00 13,8 C 99 % 1018 hPa 0,0 l/m NW 8,3 km/h (2 Bft)
03.08.2005 05:00 13,6 C 99 % 1018 hPa 0,0 l/m NW 9,0 km/h (2 Bft)
03.08.2005 06:00 13,5 C 100 % 1018 hPa 0,0 l/m W-NW 8,7 km/h (2 Bft)
03.08.2005 07:00 13,5 C 100 % 1018 hPa 0,0 l/m W-NW 2,0 km/h (1 Bft)
03.08.2005 08:00 13,6 C 100 % 1019 hPa 0,0 l/m W 1,5 km/h (1 Bft)
03.08.2005 09:00 13,9 C 100 % 1019 hPa 0,0 l/m W 3,5 km/h (1 Bft)
03.08.2005 10:00 14,3 C 98 % 1020 hPa 0,0 l/m W-SW 5,4 km/h (1 Bft)
03.08.2005 11:00 14,6 C 96 % 1020 hPa 0,0 l/m W-SW 9,9 km/h (2 Bft)
03.08.2005 12:00 15,3 C 91 % 1021 hPa 0,0 l/m W-SW 8,5 km/h (2 Bft)
03.08.2005 13:00 15,6 C 88 % 1021 hPa 0,0 l/m W-SW 8,9 km/h (2 Bft)
03.08.2005 14:00 15,5 C 88 % 1021 hPa 0,0 l/m W-SW 5,6 km/h (1 Bft)
03.08.2005 15:00 15,4 C 89 % 1021 hPa 0,0 l/m SW 6,5 km/h (2 Bft)
03.08.2005 16:00 15,9 C 87 % 1021 hPa 0,0 l/m S-SW 11,7 km/h (2 Bft)
03.08.2005 17:00 17,2 C 83 % 1021 hPa 0,0 l/m S-SW 16,8 km/h (3 Bft)
03.08.2005 18:00 18,1 C 77 % 1022 hPa 0,0 l/m S 14,1 km/h (3 Bft)
03.08.2005 19:00 17,4 C 79 % 1022 hPa 0,0 l/m W-SW 10,4 km/h (2 Bft)
03.08.2005 20:00 16,0 C 85 % 1023 hPa 0,0 l/m S-SW 10,0 km/h (2 Bft)
03.08.2005 21:00 14,7 C 93 % 1023 hPa 0,0 l/m S 10,9 km/h (2 Bft)
03.08.2005 22:00 14,2 C 97 % 1023 hPa 0,0 l/m S-SW 10,4 km/h (2 Bft)
03.08.2005 23:00 13,6 C 96 % 1024 hPa 0,0 l/m O-SO 2,3 km/h (1 Bft)
04.08.2005 00:00 13,2 C 98 % 1024 hPa 0,0 l/m SO 0,7 km/h (0 Bft)
04.08.2005 01:00 13,4 C 99 % 1023 hPa 0,0 l/m S 8,9 km/h (2 Bft)
04.08.2005 02:00 14,0 C 98 % 1023 hPa 0,0 l/m S-SW 8,0 km/h (2 Bft)
04.08.2005 03:00 14,1 C 94 % 1023 hPa 0,0 l/m O-SO 5,5 km/h (1 Bft)
04.08.2005 04:00 13,6 C 95 % 1023 hPa 0,0 l/m N 0,0 km/h (0 Bft)
04.08.2005 05:00 12,6 C 96 % 1023 hPa 0,0 l/m W 3,1 km/h (1 Bft)
04.08.2005 06:00 11,8 C 97 % 1024 hPa 0,0 l/m W 0,9 km/h (0 Bft)
04.08.2005 07:00 12,0 C 98 % 1024 hPa 0,0 l/m N 0,0 km/h (0 Bft)
04.08.2005 08:00 13,3 C 95 % 1024 hPa 0,0 l/m N 2,4 km/h (1 Bft)
04.08.2005 09:00 14,9 C 70 % 1024 hPa 0,0 l/m NW 11,7 km/h (2 Bft)
04.08.2005 10:00 17,3 C 52 % 1025 hPa 0,0 l/m N 10,2 km/h (2 Bft)
04.08.2005 11:00 18,7 C 47 % 1025 hPa 0,0 l/m N 9,3 km/h (2 Bft)
04.08.2005 12:00 19,2 C 45 % 1025 hPa 0,0 l/m N 10,7 km/h (2 Bft)
04.08.2005 13:00 19,3 C 44 % 1025 hPa 0,0 l/m W 11,1 km/h (2 Bft)
04.08.2005 14:00 19,0 C 45 % 1025 hPa 0,0 l/m N-NW 13,0 km/h (3 Bft)
04.08.2005 15:00 20,7 C 40 % 1024 hPa 0,0 l/m N 14,0 km/h (3 Bft)
04.08.2005 16:00 20,4 C 41 % 1024 hPa 0,0 l/m N-NW 12,1 km/h (2 Bft)
04.08.2005 17:00 19,6 C 44 % 1024 hPa 0,0 l/m N-NW 8,8 km/h (2 Bft)
04.08.2005 18:00 19,3 C 43 % 1024 hPa 0,0 l/m N 8,0 km/h (2 Bft)
04.08.2005 19:00 18,5 C 46 % 1025 hPa 0,0 l/m NW 5,1 km/h (1 Bft)
04.08.2005 20:00 17,0 C 56 % 1025 hPa 0,0 l/m N-NW 0,2 km/h (0 Bft)
04.08.2005 21:00 14,9 C 67 % 1025 hPa 0,0 l/m N 0,0 km/h (0 Bft)
04.08.2005 22:00 13,6 C 72 % 1025 hPa 0,0 l/m N 0,0 km/h (0 Bft)
04.08.2005 23:00 12,1 C 77 % 1025 hPa 0,0 l/m N 0,0 km/h (0 Bft)
05.08.2005 00:00 11,2 C 82 % 1025 hPa 0,0 l/m N 0,0 km/h (0 Bft)
05.08.2005 01:00 10,8 C 85 % 1025 hPa 0,0 l/m N 0,0 km/h (0 Bft)
05.08.2005 02:00 10,0 C 87 % 1025 hPa 0,0 l/m N 0,0 km/h (0 Bft)
05.08.2005 03:00 9,3 C 90 % 1024 hPa 0,0 l/m N 0,0 km/h (0 Bft)
05.08.2005 04:00 8,8 C 92 % 1024 hPa 0,0 l/m N 0,0 km/h (0 Bft)
05.08.2005 05:00 8,2 C 94 % 1024 hPa 0,0 l/m N 0,0 km/h (0 Bft)
05.08.2005 06:00 8,0 C 95 % 1024 hPa 0,0 l/m N 0,0 km/h (0 Bft)
05.08.2005 07:00 8,7 C 97 % 1024 hPa 0,0 l/m N 0,0 km/h (0 Bft)
05.08.2005 08:00 10,9 C 98 % 1024 hPa 0,0 l/m S-SW 3,2 km/h (1 Bft)
05.08.2005 09:00 14,2 C 82 % 1024 hPa 0,0 l/m S 11,7 km/h (2 Bft)
05.08.2005 10:00 17,5 C 64 % 1024 hPa 0,0 l/m S 11,1 km/h (2 Bft)
05.08.2005 11:00 19,9 C 48 % 1023 hPa 0,0 l/m S 13,0 km/h (3 Bft)
05.08.2005 12:00 21,0 C 46 % 1023 hPa 0,0 l/m S 14,9 km/h (3 Bft)
05.08.2005 13:00 21,0 C 44 % 1022 hPa 0,0 l/m S-SW 11,6 km/h (2 Bft)
05.08.2005 14:00 22,0 C 39 % 1022 hPa 0,0 l/m SW 14,3 km/h (3 Bft)
05.08.2005 15:00 22,8 C 36 % 1021 hPa 0,0 l/m S 14,8 km/h (3 Bft)
05.08.2005 16:00 23,3 C 35 % 1020 hPa 0,0 l/m W-SW 13,6 km/h (3 Bft)
05.08.2005 17:00 22,7 C 37 % 1020 hPa 0,0 l/m SW 11,6 km/h (2 Bft)
05.08.2005 18:00 21,2 C 42 % 1019 hPa 0,0 l/m W-SW 8,8 km/h (2 Bft)
05.08.2005 19:00 20,2 C 48 % 1019 hPa 0,0 l/m SW 5,5 km/h (1 Bft)
05.08.2005 20:00 19,3 C 50 % 1019 hPa 0,0 l/m SW 3,6 km/h (1 Bft)
05.08.2005 21:00 18,4 C 54 % 1019 hPa 0,0 l/m W-SW 2,8 km/h (1 Bft)
05.08.2005 22:00 18,1 C 51 % 1019 hPa 0,0 l/m W-SW 6,5 km/h (2 Bft)
05.08.2005 23:00 17,2 C 60 % 1019 hPa 0,0 l/m W-SW 9,0 km/h (2 Bft)
06.08.2005 00:00 15,3 C 81 % 1019 hPa 0,0 l/m W 5,0 km/h (1 Bft)
06.08.2005 01:00 14,6 C 91 % 1019 hPa 1,0 l/m SW 7,8 km/h (2 Bft)
06.08.2005 02:00 14,5 C 93 % 1019 hPa 0,0 l/m W-SW 5,0 km/h (1 Bft)
06.08.2005 03:00 14,4 C 96 % 1019 hPa 0,0 l/m SW 7,5 km/h (2 Bft)
06.08.2005 04:00 14,4 C 97 % 1019 hPa 0,0 l/m W-SW 9,8 km/h (2 Bft)
06.08.2005 05:00 14,1 C 97 % 1018 hPa 0,0 l/m S-SW 8,4 km/h (2 Bft)
06.08.2005 06:00 14,1 C 98 % 1019 hPa 0,0 l/m W-SW 5,7 km/h (1 Bft)
06.08.2005 07:00 14,4 C 97 % 1019 hPa 1,0 l/m W-SW 9,4 km/h (2 Bft)
06.08.2005 08:00 14,6 C 97 % 1019 hPa 0,0 l/m W 7,4 km/h (2 Bft)
06.08.2005 09:00 15,2 C 92 % 1019 hPa 0,0 l/m W-SW 9,2 km/h (2 Bft)
06.08.2005 10:00 15,1 C 86 % 1020 hPa 0,0 l/m NW 7,6 km/h (2 Bft)
06.08.2005 11:00 15,3 C 80 % 1020 hPa 0,0 l/m NW 8,0 km/h (2 Bft)
06.08.2005 12:00 17,1 C 65 % 1019 hPa 0,0 l/m N-NW 10,8 km/h (2 Bft)
06.08.2005 13:00 18,5 C 50 % 1019 hPa 0,0 l/m N 11,7 km/h (2 Bft)
06.08.2005 14:00 19,0 C 47 % 1019 hPa 0,0 l/m N 9,5 km/h (2 Bft)
06.08.2005 15:00 19,2 C 47 % 1018 hPa 0,0 l/m N 10,4 km/h (2 Bft)
06.08.2005 16:00 18,6 C 50 % 1018 hPa 0,0 l/m N 9,2 km/h (2 Bft)
06.08.2005 17:00 18,1 C 50 % 1018 hPa 0,0 l/m W 8,8 km/h (2 Bft)
06.08.2005 18:00 17,1 C 55 % 1017 hPa 0,0 l/m N 11,5 km/h (2 Bft)
06.08.2005 19:00 16,3 C 55 % 1017 hPa 0,0 l/m N-NO 4,3 km/h (1 Bft)
06.08.2005 20:00 15,2 C 65 % 1017 hPa 0,0 l/m S 0,8 km/h (0 Bft)
06.08.2005 21:00 13,8 C 71 % 1017 hPa 0,0 l/m N 0,0 km/h (0 Bft)
06.08.2005 22:00 12,6 C 74 % 1017 hPa 0,0 l/m N 0,0 km/h (0 Bft)
06.08.2005 23:00 12,8 C 76 % 1017 hPa 0,0 l/m W-SW 4,0 km/h (1 Bft)
07.08.2005 00:00 13,4 C 72 % 1017 hPa 0,0 l/m W-SW 2,3 km/h (1 Bft)
07.08.2005 01:00 13,2 C 73 % 1016 hPa 0,0 l/m W 2,1 km/h (1 Bft)
07.08.2005 02:00 12,8 C 75 % 1016 hPa 0,0 l/m W 7,0 km/h (2 Bft)
07.08.2005 03:00 12,4 C 77 % 1015 hPa 0,0 l/m W 11,3 km/h (2 Bft)
07.08.2005 04:00 12,1 C 77 % 1015 hPa 0,0 l/m W 7,7 km/h (2 Bft)
07.08.2005 05:00 11,5 C 78 % 1015 hPa 0,0 l/m W-NW 6,7 km/h (2 Bft)
07.08.2005 06:00 10,7 C 81 % 1015 hPa 0,0 l/m W-NW 1,0 km/h (0 Bft)
07.08.2005 07:00 10,8 C 84 % 1015 hPa 0,0 l/m W-SW 5,8 km/h (2 Bft)
07.08.2005 08:00 11,8 C 76 % 1015 hPa 0,0 l/m W 9,9 km/h (2 Bft)
07.08.2005 09:00 12,7 C 67 % 1015 hPa 0,0 l/m W-SW 12,0 km/h (2 Bft)
07.08.2005 10:00 13,5 C 56 % 1015 hPa 0,0 l/m W-NW 13,7 km/h (3 Bft)
07.08.2005 11:00 13,4 C 57 % 1015 hPa 0,0 l/m W 12,5 km/h (3 Bft)
07.08.2005 12:00 14,5 C 53 % 1015 hPa 0,0 l/m W 12,3 km/h (3 Bft)
07.08.2005 13:00 16,2 C 46 % 1014 hPa 0,0 l/m W 12,2 km/h (2 Bft)
07.08.2005 14:00 17,1 C 41 % 1014 hPa 0,0 l/m W 12,9 km/h (3 Bft)
07.08.2005 15:00 16,9 C 40 % 1014 hPa 0,0 l/m W 9,4 km/h (2 Bft)
07.08.2005 16:00 13,6 C 70 % 1014 hPa 0,0 l/m NW 10,3 km/h (2 Bft)
07.08.2005 17:00 13,3 C 73 % 1014 hPa 0,0 l/m W 5,1 km/h (1 Bft)
07.08.2005 18:00 14,3 C 63 % 1014 hPa 0,0 l/m W-SW 5,7 km/h (1 Bft)
07.08.2005 19:00 13,4 C 75 % 1014 hPa 1,0 l/m S 7,9 km/h (2 Bft)
07.08.2005 20:00 12,1 C 88 % 1015 hPa 0,0 l/m S-SW 6,3 km/h (2 Bft)
07.08.2005 21:00 11,4 C 89 % 1016 hPa 0,0 l/m N 4,5 km/h (1 Bft)
07.08.2005 22:00 10,1 C 86 % 1016 hPa 0,0 l/m W 3,2 km/h (1 Bft)
07.08.2005 23:00 9,2 C 90 % 1016 hPa 0,0 l/m N 0,0 km/h (0 Bft)
Min-Datum _ 05.08.05 05.08.05 07.08.05 - - 01.08.05
_ Min-Zeit 06:02 15:39 14:29 - - 00:00
Minimum _ 8,0 C 34 % 1013 hPa - - 0,0 km/h (0 Bft)
Max-Datum _ 01.08.05 03.08.05 04.08.05 02.08.05 - 07.08.05
_ Max-Zeit 15:11 03:04 10:00 05:41 - 16:01
Maximum _ 25,0 C 100 % 1025 hPa 9,0 l/m - 35,8 km/h
NW (5 Bft)
Durchschnitt _ 15,6 C 76 % 1019 hPa #22,0 l/m N 7,1 km/h (2 Bft)

Durchschnitt Minimum Temp.15,2 C
Durchschnitt Maximum Temp.16,1 C